Time;durP1;ratioP1;P1;durP2;ratioP2;P2;SDS_P1;SDS_P2;PMS_P1;PMS_P2;Temp;Humidity;BMP_temperature;BMP_pressure;BME280_temperature;BME280_humidity;BME280_pressure;Samples;Min_cycle;Max_cycle;Signal;HPM_P1;HPM_P2
2022/12/11 00:07:14;;;;;;;19.83;3.17;;;;;;;18.06;77.74;97389.72;5908821;24;20197;-91
2022/12/11 00:09:40;;;;;;;11.13;2.27;;;;;;;18.28;76.64;97403.09;5959427;24;20186;-93
2022/12/11 00:12:53;;;;;;;16.17;2.67;;;;;;;18.27;76.15;97403.25;5996729;23;20166;-90
2022/12/11 00:15:46;;;;;;;14.30;2.67;;;;;;;18.34;75.61;97409.53;5954577;24;20163;-91
2022/12/11 00:18:45;;;;;;;20.93;2.93;;;;;;;18.44;74.90;97418.13;6092899;23;20160;-89
2022/12/11 00:21:26;;;;;;;10.77;3.00;;;;;;;18.37;75.02;97414.47;6102336;23;20151;-92
2022/12/11 00:24:09;;;;;;;16.37;3.13;;;;;;;18.44;74.76;97420.78;6102413;23;20179;-90
2022/12/11 00:27:10;;;;;;;10.87;2.63;;;;;;;18.60;73.75;97411.97;6102849;23;20176;-93
2022/12/11 00:29:54;;;;;;;13.53;2.87;;;;;;;18.68;73.26;97391.53;6011640;23;20155;-93
2022/12/11 00:32:26;;;;;;;12.57;1.77;;;;;;;18.74;72.82;97382.00;5982756;24;20167;-90
2022/12/11 00:35:33;;;;;;;23.37;2.87;;;;;;;18.69;73.25;97361.31;5983227;24;20163;-93
2022/12/11 00:38:43;;;;;;;14.60;2.23;;;;;;;18.67;73.14;97344.75;5931981;24;20160;-94
2022/12/11 01:22:52;;;;;;;5.80;1.47;;;;;;;19.26;70.43;97244.06;6092870;23;20611;-92
2022/12/11 01:31:54;;;;;;;11.00;1.60;;;;;;;18.96;72.57;97238.69;6127639;23;20147;-90
2022/12/11 01:35:03;;;;;;;;;;;;;;;;;;;;;
2022/12/11 01:41:04;;;;;;;5.17;1.37;;;;;;;18.75;74.61;97201.38;6010719;23;20194;-94
2022/12/11 01:43:35;;;;;;;12.00;1.60;;;;;;;18.72;74.75;97182.31;5986702;23;20158;-91
2022/12/11 01:46:10;;;;;;;9.57;1.77;;;;;;;18.66;75.11;97188.34;6099009;23;20155;-90
2022/12/11 01:49:13;;;;;;;9.17;1.33;;;;;;;18.59;75.47;97172.31;6102414;23;20148;-92
2022/12/11 01:52:27;;;;;;;10.30;2.40;;;;;;;18.57;75.06;97178.81;6101530;23;20151;-92
2022/12/11 01:58:41;;;;;;;9.77;1.90;;;;;;;18.84;73.86;97191.53;5926014;24;20171;-92
2022/12/11 02:01:36;;;;;;;5.07;1.43;;;;;;;18.69;74.31;97187.97;5902578;24;20478;-92
2022/12/11 02:04:15;;;;;;;7.33;1.47;;;;;;;18.71;74.21;97184.16;5932242;23;20159;-93
2022/12/11 02:07:04;;;;;;;9.07;1.30;;;;;;;18.99;73.19;97171.13;6097629;23;20187;-92
2022/12/11 02:10:10;;;;;;;;;;;;;;;;;;;;;
2022/12/11 02:13:20;;;;;;;;;;;;;;;;;;;;;
2022/12/11 02:20:11;;;;;;;1.97;0.63;;;;;;;18.74;73.77;97120.09;6082100;23;20214;-93
2022/12/11 02:22:58;;;;;;;6.13;1.33;;;;;;;18.74;73.77;97127.22;6125187;23;20182;-91
2022/12/11 02:25:42;;;;;;;4.43;1.00;;;;;;;18.87;73.19;97133.56;6127194;23;20139;-94
2022/12/11 02:28:45;;;;;;;4.00;1.13;;;;;;;18.91;73.25;97144.66;6100944;23;20184;-95
2022/12/11 02:31:50;;;;;;;4.23;0.63;;;;;;;18.95;72.99;97143.28;6101453;23;20222;-93
2022/12/11 02:34:57;;;;;;;3.40;1.00;;;;;;;18.91;73.18;97142.00;6127151;23;20187;-92
2022/12/11 02:37:31;;;;;;;3.03;0.87;;;;;;;18.99;73.00;97145.41;6125417;23;20157;-90
2022/12/11 02:40:10;;;;;;;8.53;1.17;;;;;;;18.98;73.18;97132.31;6126776;23;20179;-92
2022/12/11 02:42:59;;;;;;;7.13;1.17;;;;;;;19.06;73.34;97134.03;6127272;23;20486;-94
2022/12/11 02:45:57;;;;;;;6.13;1.50;;;;;;;19.09;72.96;97139.81;6127197;23;20132;-92
2022/12/11 02:48:46;;;;;;;7.53;1.07;;;;;;;19.13;72.98;97140.31;6101167;23;20169;-94
2022/12/11 02:51:22;;;;;;;14.37;1.60;;;;;;;19.11;73.03;97129.00;6101680;23;20568;-93
2022/12/11 02:54:14;;;;;;;9.80;1.40;;;;;;;18.90;73.67;97133.22;6102177;23;20152;-92
2022/12/11 02:56:57;;;;;;;4.83;1.30;;;;;;;19.05;73.38;97117.28;6099634;23;20667;-89
2022/12/11 02:59:30;;;;;;;2.63;1.17;;;;;;;19.05;73.43;97140.38;6101101;23;20493;-91
2022/12/11 03:01:55;;;;;;;8.27;2.27;;;;;;;18.88;73.98;97115.81;6126634;23;20762;-91
2022/12/11 03:04:48;;;;;;;5.87;0.93;;;;;;;18.91;74.10;97118.94;6126684;23;20148;-92
2022/12/11 03:07:44;;;;;;;9.77;1.17;;;;;;;18.95;73.34;97117.56;6127694;23;20171;-94
2022/12/11 03:10:17;;;;;;;9.40;1.60;;;;;;;19.11;72.55;97108.59;6125121;23;20166;-89
2022/12/11 03:13:19;;;;;;;;;;;;;;;;;;;;;
2022/12/11 03:16:16;;;;;;;6.53;1.60;;;;;;;18.94;72.00;97078.78;6119783;23;20156;-91
2022/12/11 03:19:13;;;;;;;6.97;1.23;;;;;;;18.94;72.23;97092.03;6098079;23;20166;-93
2022/12/11 03:21:54;;;;;;;15.63;2.60;;;;;;;19.28;71.51;97102.09;6100194;23;20226;-90
2022/12/11 03:24:27;;;;;;;8.73;2.67;;;;;;;19.19;71.94;97102.38;6126928;23;20136;-91
2022/12/11 03:27:49;;;;;;;4.57;1.33;;;;;;;19.02;72.77;97099.09;6101212;23;20250;-90
2022/12/11 03:30:28;;;;;;;12.63;2.60;;;;;;;18.84;73.92;97093.31;6101599;23;20234;-92
2022/12/11 03:33:19;;;;;;;;;;;;;;;;;;;;;
2022/12/11 03:35:54;;;;;;;16.90;3.57;;;;;;;18.94;73.60;97091.22;6127350;23;20738;-92
2022/12/11 03:38:38;;;;;;;12.13;1.87;;;;;;;18.83;74.25;97105.75;6100596;23;20159;-92
2022/12/11 03:41:14;;;;;;;21.23;2.60;;;;;;;18.90;73.88;97088.09;6126860;23;20141;-91
2022/12/11 03:44:06;;;;;;;18.27;2.80;;;;;;;18.98;73.93;97095.97;6126644;23;20139;-94
2022/12/11 03:47:12;;;;;;;23.03;2.83;;;;;;;18.81;74.82;97083.88;6122510;23;20212;-92
2022/12/11 03:49:46;;;;;;;20.30;2.40;;;;;;;18.72;75.01;97098.22;6111649;23;20159;-93
2022/12/11 03:52:19;;;;;;;10.43;2.00;;;;;;;18.62;75.32;97087.06;6103656;23;20151;-91
2022/12/11 03:54:57;;;;;;;15.20;2.80;;;;;;;18.66;75.75;97096.28;6102368;23;20509;-94
2022/12/11 03:58:01;;;;;;;8.73;1.70;;;;;;;18.94;74.31;97101.84;6102835;23;20144;-93
2022/12/11 04:00:42;;;;;;;12.83;1.73;;;;;;;18.76;74.76;97110.13;6097923;23;20247;-92
2022/12/11 04:03:36;;;;;;;20.33;2.03;;;;;;;18.81;74.84;97099.81;6128355;23;20138;-90
2022/12/11 04:06:04;;;;;;;11.67;2.07;;;;;;;18.86;74.09;97115.19;6118267;23;20532;-92
2022/12/11 04:08:39;;;;;;;15.97;3.60;;;;;;;18.67;75.11;97113.03;6102381;23;20164;-91
2022/12/11 04:30:37;;;;;;;11.97;2.47;;;;;;;18.98;74.18;97076.56;5899524;24;20280;-93
2022/12/11 04:33:05;;;;;;;9.60;1.87;;;;;;;18.78;75.01;97084.25;5845990;24;20162;-92
2022/12/11 04:35:57;;;;;;;16.27;2.80;;;;;;;18.78;74.93;97070.97;5884960;23;20161;-90
2022/12/11 04:38:37;;;;;;;7.07;2.20;;;;;;;18.72;75.14;97045.16;6004679;23;20158;-93
2022/12/11 04:41:07;;;;;;;7.27;1.73;;;;;;;18.66;75.07;97029.94;6011472;23;20180;-89
2022/12/11 04:43:36;;;;;;;14.37;1.63;;;;;;;18.59;75.49;97018.41;5987507;23;20158;-92
2022/12/11 04:46:20;;;;;;;15.50;2.27;;;;;;;18.63;75.53;96998.47;5987109;23;20170;-92
2022/12/11 04:49:27;;;;;;;9.87;2.53;;;;;;;18.57;75.93;97009.81;6011225;23;20146;-95
2022/12/11 04:51:52;;;;;;;8.67;2.40;;;;;;;18.50;76.53;97018.69;6010898;23;20147;-91
2022/12/11 04:54:21;;;;;;;13.20;2.37;;;;;;;18.56;76.47;97028.56;6010467;23;20181;-92
2022/12/11 04:56:46;;;;;;;13.00;2.53;;;;;;;18.48;76.90;97047.22;6057321;23;20218;-89
2022/12/11 04:59:15;;;;;;;12.33;1.40;;;;;;;18.57;76.42;97057.59;6102191;23;20207;-89
2022/12/11 05:01:40;;;;;;;13.43;2.30;;;;;;;18.74;75.58;97059.06;6127511;23;20152;-89
2022/12/11 05:04:06;;;;;;;9.77;1.83;;;;;;;18.54;76.54;97065.91;6127184;23;20186;-89
2022/12/11 05:06:38;;;;;;;15.23;2.07;;;;;;;18.61;76.36;97056.19;6101373;23;20184;-90
2022/12/11 05:09:15;;;;;;;12.40;2.10;;;;;;;18.56;76.44;97069.19;6127015;23;20144;-90
2022/12/11 05:12:03;;;;;;;7.30;1.90;;;;;;;18.55;76.62;97070.22;6127932;23;20559;-92
2022/12/11 05:14:37;;;;;;;11.67;1.70;;;;;;;18.59;76.49;97066.19;6127577;23;20148;-93
2022/12/11 05:17:03;;;;;;;8.97;1.47;;;;;;;18.52;75.99;97072.41;6101839;23;20148;-90
2022/12/11 05:23:11;;;;;;;6.87;1.67;;;;;;;18.57;75.88;97068.19;5981915;24;20179;-90
2022/12/11 05:26:35;;;;;;;11.63;1.93;;;;;;;18.58;75.59;97069.81;5903647;24;20164;-94
2022/12/11 05:29:10;;;;;;;4.43;1.53;;;;;;;18.56;75.64;97077.16;5836857;24;20181;-94
2022/12/11 05:32:04;;;;;;;7.00;1.20;;;;;;;18.65;75.02;97075.25;5966063;24;20242;-93
2022/12/11 05:34:41;;;;;;;7.30;1.20;;;;;;;18.82;73.86;97074.91;5982931;24;20175;-93
2022/12/11 05:37:09;;;;;;;9.23;1.40;;;;;;;18.75;73.99;97086.44;5982638;24;20155;-92
2022/12/11 05:40:20;;;;;;;5.67;1.00;;;;;;;18.92;73.50;97095.84;5981423;24;20235;-92
2022/12/11 05:53:01;;;;;;;;;;;;;;;;;;;;;
2022/12/11 05:55:27;;;;;;;5.67;1.40;;;;;;;18.77;72.36;97085.25;5846205;24;20217;-90
2022/12/11 05:57:52;;;;;;;3.27;1.23;;;;;;;18.73;72.10;97101.72;5896450;24;20274;-88
2022/12/11 06:03:50;;;;;;;2.20;0.67;;;;;;;18.98;70.93;97103.94;5926431;24;20282;-92
2022/12/11 06:07:05;;;;;;;5.70;1.63;;;;;;;18.99;70.25;97110.06;5926594;24;20159;-93
2022/12/11 06:09:48;;;;;;;4.33;1.60;;;;;;;18.93;70.29;97116.94;5959542;23;20156;-93
2022/12/11 06:12:23;;;;;;;7.93;2.43;;;;;;;18.97;70.31;97106.78;6102315;23;20155;-92
2022/12/11 06:18:07;;;;;;;8.60;1.27;;;;;;;18.99;69.74;97134.78;6010469;23;20267;-91
2022/12/11 06:20:34;;;;;;;5.20;0.90;;;;;;;19.05;69.52;97135.88;5986440;23;20157;-89
2022/12/11 06:23:12;;;;;;;;;;;;;;;;;;;;;
2022/12/11 06:37:22;;;;;;;4.47;1.90;;;;;;;19.18;68.91;97141.38;5998076;23;20315;-94
2022/12/11 06:40:57;;;;;;;4.30;0.97;;;;;;;19.32;68.60;97143.22;6010501;23;20161;-95
2022/12/11 06:44:11;;;;;;;5.57;1.07;;;;;;;19.28;67.57;97143.78;5987903;23;20150;-92
2022/12/11 06:46:36;;;;;;;11.47;1.03;;;;;;;19.42;67.24;97132.34;6010559;23;20206;-88
2022/12/11 06:52:34;;;;;;;5.37;1.70;;;;;;;19.62;66.42;97138.75;6010362;23;20582;-91
2022/12/11 06:59:28;;;;;;;;;;;;;;;;;;;;;
2022/12/11 07:02:44;;;;;;;3.43;1.17;;;;;;;19.63;66.50;97143.03;5959036;24;20162;-95
2022/12/11 07:16:03;;;;;;;;;;;;;;;;;;;;;
2022/12/11 07:49:52;;;;;;;6.27;1.57;;;;;;;20.35;62.67;97177.66;5982888;24;20262;-90
2022/12/11 07:53:15;;;;;;;7.93;1.40;;;;;;;20.27;62.28;97162.63;6010822;23;20166;-90
2022/12/11 08:03:18;;;;;;;8.97;1.10;;;;;;;20.12;63.53;97178.63;5916887;24;20604;-92
2022/12/11 08:06:24;;;;;;;3.53;0.87;;;;;;;20.17;63.66;97178.88;5955986;24;20649;-91
2022/12/11 08:09:23;;;;;;;9.70;1.73;;;;;;;20.21;63.61;97188.13;5955288;24;20497;-91
2022/12/11 08:15:40;;;;;;;6.20;1.23;;;;;;;20.20;63.54;97175.03;5845972;24;20219;-92
2022/12/11 08:21:50;;;;;;;4.47;1.40;;;;;;;20.28;63.08;97148.34;5689819;25;20194;-91
2022/12/11 08:25:07;;;;;;;;;;;;;;;;;;;;;
2022/12/11 08:28:22;;;;;;;11.93;1.57;;;;;;;20.38;62.55;97145.34;5714543;25;20280;-93
2022/12/11 08:31:05;;;;;;;5.43;1.57;;;;;;;20.45;62.09;97154.22;5723242;24;20234;-90
2022/12/11 08:41:25;;;;;;;4.00;1.30;;;;;;;20.91;62.34;97165.28;5815645;24;20202;-91
2022/12/11 08:44:45;;;;;;;;;;;;;;;;;;;;;
2022/12/11 08:54:54;;;;;;;7.07;1.37;;;;;;;21.11;63.82;97179.59;5715133;25;20244;-92
2022/12/11 08:58:12;;;;;;;9.47;1.93;;;;;;;20.82;63.98;97164.56;5713917;25;20182;-94
2022/12/11 09:01:24;;;;;;;10.10;2.00;;;;;;;20.57;65.18;97164.16;5723225;24;20285;-91
2022/12/11 09:04:03;;;;;;;7.10;0.73;;;;;;;20.44;64.75;97163.22;5857016;24;20155;-92
2022/12/11 09:06:29;;;;;;;4.57;0.77;;;;;;;20.17;66.01;97170.91;5954820;24;20187;-89
2022/12/11 09:09:59;;;;;;;7.57;1.10;;;;;;;20.19;65.70;97166.22;5954875;24;20174;-94
2022/12/11 09:15:46;;;;;;;2.57;0.83;;;;;;;20.39;64.78;97157.66;5921618;23;20197;-92
2022/12/11 09:21:57;;;;;;;3.93;0.63;;;;;;;20.44;64.06;97155.25;5908333;24;20665;-92
2022/12/11 09:27:33;;;;;;;5.00;1.10;;;;;;;20.37;64.21;97159.66;5980297;24;20703;-90
2022/12/11 09:31:42;;;;;;;;;;;;;;;;;;;;;
2022/12/11 09:37:12;;;;;;;8.97;1.63;;;;;;;20.21;64.33;97147.38;6069301;23;20144;-92
2022/12/11 09:39:43;;;;;;;5.47;1.20;;;;;;;20.20;64.50;97154.53;6067883;23;20168;-94
2022/12/11 09:42:59;;;;;;;12.77;2.57;;;;;;;20.53;63.68;97165.56;6072949;23;20486;-93
2022/12/11 09:45:30;;;;;;;9.17;1.20;;;;;;;20.42;63.35;97157.25;5982669;24;20169;-93
2022/12/11 09:48:56;;;;;;;5.50;1.40;;;;;;;20.49;63.58;97160.81;5958346;24;20223;-92
2022/12/11 09:57:03;;;;;;;;;;;;;;;;;;;;;
2022/12/11 09:59:42;;;;;;;;;;;;;;;;;;;;;
2022/12/11 10:05:13;;;;;;;9.83;1.40;;;;;;;20.90;61.79;97140.47;5818550;24;20167;-91
2022/12/11 10:18:00;;;;;;;4.63;1.60;;;;;;;21.10;60.38;97130.81;5981537;24;20234;-92
2022/12/11 10:20:55;;;;;;;6.70;1.73;;;;;;;21.12;60.40;97134.09;5958717;24;20163;-91
2022/12/11 10:27:21;;;;;;;8.63;1.53;;;;;;;21.02;60.44;97128.25;5876914;24;20656;-93
2022/12/11 10:30:09;;;;;;;3.40;1.03;;;;;;;21.14;60.28;97132.06;5898845;24;20168;-90
2022/12/11 10:33:19;;;;;;;15.90;2.83;;;;;;;21.16;60.14;97134.53;5894929;24;20168;-91
2022/12/11 10:37:02;;;;;;;11.40;1.87;;;;;;;21.27;59.42;97113.50;5933306;24;20155;-92
2022/12/11 10:40:15;;;;;;;;;;;;;;;;;;;;;
2022/12/11 10:43:18;;;;;;;8.80;1.27;;;;;;;21.19;58.87;97113.66;5906342;24;20246;-92
2022/12/11 10:56:47;;;;;;;;;;;;;;;;;;;;;
2022/12/11 11:00:00;;;;;;;12.93;1.60;;;;;;;21.48;58.36;97069.09;5897951;24;20240;-90
2022/12/11 11:06:17;;;;;;;10.80;1.50;;;;;;;21.56;57.78;97060.94;5900989;24;20220;-92
2022/12/11 11:09:19;;;;;;;7.80;1.83;;;;;;;21.71;56.77;97066.94;5794393;24;20181;-90
2022/12/11 11:15:24;;;;;;;6.53;1.23;;;;;;;21.86;55.82;97056.94;5848749;24;20556;-95
2022/12/11 11:21:30;;;;;;;9.63;1.47;;;;;;;21.86;54.00;97038.28;5847489;24;20181;-93
2022/12/11 11:24:01;;;;;;;12.27;1.23;;;;;;;21.93;54.85;97031.13;5825994;24;20188;-93
2022/12/11 11:26:38;;;;;;;5.77;1.17;;;;;;;21.99;53.99;97055.13;5919853;24;20163;-93
2022/12/11 11:29:25;;;;;;;6.20;1.57;;;;;;;21.68;54.08;97046.00;5969181;23;20156;-95
2022/12/11 11:32:47;;;;;;;4.10;1.07;;;;;;;21.68;54.06;97064.66;6074549;23;20156;-92
2022/12/11 11:39:32;;;;;;;5.47;1.13;;;;;;;22.15;53.22;97072.59;5967914;24;20605;-90
2022/12/11 11:42:44;;;;;;;3.53;0.93;;;;;;;22.06;52.35;97079.19;5956936;24;20155;-94
2022/12/11 11:45:31;;;;;;;9.37;1.40;;;;;;;21.92;52.06;97074.81;5901985;24;20492;-92
2022/12/11 11:48:44;;;;;;;3.77;1.00;;;;;;;21.93;52.89;97074.59;5878499;24;20273;-92
2022/12/11 11:51:18;;;;;;;9.07;1.17;;;;;;;21.94;52.53;97076.25;5901674;23;20220;-89
2022/12/11 11:54:26;;;;;;;9.10;2.10;;;;;;;21.92;52.68;97059.66;5988821;23;20157;-91
2022/12/11 11:57:10;;;;;;;6.33;1.60;;;;;;;22.14;52.98;97048.81;5981143;24;20602;-91
2022/12/11 12:00:09;;;;;;;11.10;1.27;;;;;;;22.31;51.79;97037.53;5960569;24;20179;-89
2022/12/11 12:03:25;;;;;;;13.87;1.90;;;;;;;22.16;51.55;97030.72;5944935;24;20229;-96
2022/12/11 12:06:41;;;;;;;7.07;0.87;;;;;;;21.84;52.18;97042.97;5948623;24;20163;-91
2022/12/11 12:13:13;;;;;;;6.90;1.23;;;;;;;21.62;52.84;97025.50;5899639;24;20164;-92
2022/12/11 12:16:04;;;;;;;5.60;1.00;;;;;;;21.58;53.63;97018.91;5928214;24;20157;-91
2022/12/11 12:19:00;;;;;;;7.50;1.30;;;;;;;21.82;52.95;97021.03;6040254;23;20158;-94
2022/12/11 12:25:41;;;;;;;6.57;1.10;;;;;;;21.87;51.95;97007.94;5928199;24;20171;-92
2022/12/11 12:29:09;;;;;;;5.43;0.90;;;;;;;21.95;51.76;97018.41;5927433;24;20192;-92
2022/12/11 12:31:59;;;;;;;2.83;1.17;;;;;;;21.75;52.12;97012.19;5905751;24;20558;-93
2022/12/11 12:35:23;;;;;;;;;;;;;;;;;;;;;
2022/12/11 12:38:27;;;;;;;6.23;1.53;;;;;;;21.44;53.93;97021.53;6038832;23;20229;-95
2022/12/11 12:41:36;;;;;;;8.43;1.30;;;;;;;21.19;55.03;97022.25;6068193;23;20197;-91
2022/12/11 12:44:32;;;;;;;8.20;1.30;;;;;;;20.87;55.97;97017.53;6069980;23;20225;-93
2022/12/11 12:47:19;;;;;;;7.53;1.27;;;;;;;20.82;56.11;97037.59;6070162;23;20205;-90
2022/12/11 12:50:34;;;;;;;8.67;2.10;;;;;;;20.84;56.83;97040.88;6043508;23;20157;-93
2022/12/11 12:59:29;;;;;;;13.03;1.80;;;;;;;20.99;57.04;97037.28;5955796;24;20175;-94
2022/12/11 13:02:45;;;;;;;5.57;1.20;;;;;;;21.04;57.38;97022.34;6069671;23;20152;-94
2022/12/11 13:05:58;;;;;;;6.73;1.30;;;;;;;21.09;56.84;97027.94;6032303;23;20161;-90
2022/12/11 13:12:31;;;;;;;5.40;1.00;;;;;;;20.92;57.71;97020.44;6070121;23;20172;-95
2022/12/11 13:15:26;;;;;;;9.03;1.47;;;;;;;20.87;57.04;97028.19;6011146;23;20159;-90
2022/12/11 13:18:52;;;;;;;6.93;1.53;;;;;;;21.09;56.39;97035.94;6011006;23;20139;-93
2022/12/11 13:25:09;;;;;;;4.07;1.13;;;;;;;20.54;58.35;97049.28;5927681;24;20160;-94
2022/12/11 13:31:38;;;;;;;5.60;1.60;;;;;;;20.58;58.04;97067.31;5896577;24;20250;-94
2022/12/11 13:35:01;;;;;;;4.17;1.30;;;;;;;20.45;58.78;97071.72;5900107;24;20137;-92
2022/12/11 13:37:34;;;;;;;7.67;1.97;;;;;;;20.49;59.06;97059.69;5913789;24;20164;-90
2022/12/11 13:43:34;;;;;;;3.93;1.47;;;;;;;20.56;59.08;97068.53;5871084;24;20209;-92
2022/12/11 13:46:53;;;;;;;11.27;1.90;;;;;;;20.03;61.44;97068.03;5872472;24;20499;-93
2022/12/11 13:53:04;;;;;;;2.93;1.10;;;;;;;19.32;64.44;97066.19;5788243;24;20237;-93
2022/12/11 13:55:32;;;;;;;3.50;0.87;;;;;;;19.53;64.28;97068.09;6002949;23;20162;-92
2022/12/11 13:58:39;;;;;;;3.87;1.27;;;;;;;19.22;65.81;97062.16;6058623;23;20157;-92
2022/12/11 14:01:19;;;;;;;7.83;1.23;;;;;;;19.03;66.39;97059.06;6042674;23;20168;-88
2022/12/11 14:06:57;;;;;;;5.83;1.33;;;;;;;19.04;66.51;97046.63;5981611;24;20580;-90
2022/12/11 14:09:29;;;;;;;6.73;1.20;;;;;;;19.14;66.44;97044.50;5958546;24;20182;-93
2022/12/11 14:12:04;;;;;;;6.77;1.73;;;;;;;19.09;66.85;97040.75;5958440;24;20174;-90
2022/12/11 14:14:57;;;;;;;5.37;1.40;;;;;;;18.90;66.87;97052.75;5981606;24;20583;-88
2022/12/11 14:17:31;;;;;;;14.00;1.57;;;;;;;18.88;67.28;97057.41;5990139;23;20304;-91
2022/12/11 14:20:05;;;;;;;9.07;1.63;;;;;;;18.92;66.91;97048.91;6068875;23;20190;-90
2022/12/11 14:22:30;;;;;;;14.93;2.27;;;;;;;18.94;66.95;97054.88;6068466;23;20138;-89
2022/12/11 14:25:23;;;;;;;8.10;1.93;;;;;;;18.95;66.68;97051.19;6068335;23;20153;-89
2022/12/11 14:27:55;;;;;;;9.47;1.50;;;;;;;18.84;67.27;97049.00;6057485;23;20630;-90
2022/12/11 14:30:26;;;;;;;6.93;1.30;;;;;;;18.77;67.35;97058.69;6068571;23;20461;-89
2022/12/11 14:33:16;;;;;;;5.93;1.20;;;;;;;18.66;68.09;97056.47;6068415;23;20148;-94
2022/12/11 14:35:46;;;;;;;6.77;1.63;;;;;;;18.58;68.78;97067.16;6054350;23;20157;-92
2022/12/11 14:38:26;;;;;;;5.37;2.03;;;;;;;18.51;68.88;97070.72;6068914;23;20211;-89
2022/12/11 14:41:39;;;;;;;15.57;3.93;;;;;;;18.55;69.25;97078.19;6068555;23;20137;-94
2022/12/11 14:44:06;;;;;;;7.63;1.77;;;;;;;18.49;69.61;97075.41;5981501;23;20250;-87
2022/12/11 14:46:37;;;;;;;13.10;2.37;;;;;;;18.56;69.58;97066.53;6068023;23;20581;-89
2022/12/11 14:49:15;;;;;;;7.77;1.93;;;;;;;18.50;70.16;97071.75;6043034;23;20224;-88
2022/12/11 14:51:41;;;;;;;3.93;1.47;;;;;;;18.51;70.24;97082.19;6067963;23;20141;-89
2022/12/11 14:54:30;;;;;;;7.93;1.63;;;;;;;18.47;70.68;97078.25;6068699;23;20225;-89
2022/12/11 14:56:57;;;;;;;5.43;1.33;;;;;;;18.69;69.85;97085.31;6028042;23;20157;-88
2022/12/11 14:59:26;;;;;;;10.33;2.50;;;;;;;18.57;69.60;97078.81;6067925;23;20236;-88
2022/12/11 15:02:00;;;;;;;4.50;1.30;;;;;;;18.68;69.09;97081.03;6068032;23;20248;-90
2022/12/11 15:04:32;;;;;;;15.40;2.67;;;;;;;18.73;68.95;97077.81;6068353;23;20154;-88
2022/12/11 15:06:59;;;;;;;7.13;2.10;;;;;;;18.66;69.09;97075.06;6068315;23;20622;-87
2022/12/11 15:09:41;;;;;;;8.10;1.30;;;;;;;18.52;69.83;97067.91;6042932;23;20167;-87
2022/12/11 15:12:16;;;;;;;5.87;2.10;;;;;;;18.54;69.52;97063.25;6042796;23;20160;-89
2022/12/11 15:14:51;;;;;;;8.00;2.07;;;;;;;18.61;69.27;97064.16;6067954;23;20240;-88
2022/12/11 15:17:18;;;;;;;9.50;2.73;;;;;;;18.53;69.69;97068.72;6067905;23;20149;-94
2022/12/11 15:20:06;;;;;;;8.03;2.00;;;;;;;18.49;69.65;97078.06;6042892;23;20153;-89
2022/12/11 15:22:33;;;;;;;9.30;1.70;;;;;;;18.43;70.27;97076.91;6068200;23;20565;-88
2022/12/11 15:24:59;;;;;;;8.43;1.93;;;;;;;18.43;70.07;97080.41;6067885;23;20188;-89
2022/12/11 15:27:34;;;;;;;12.47;2.57;;;;;;;18.51;70.09;97084.00;6042764;23;20177;-88
2022/12/11 15:30:00;;;;;;;17.00;2.37;;;;;;;18.51;70.01;97084.81;6042907;23;20145;-88
2022/12/11 15:32:26;;;;;;;6.23;2.43;;;;;;;18.44;70.35;97086.53;6068525;23;20231;-89
2022/12/11 15:34:57;;;;;;;6.00;2.40;;;;;;;18.31;71.18;97083.66;6043143;23;20522;-91
2022/12/11 15:37:27;;;;;;;10.40;2.20;;;;;;;18.28;70.89;97089.31;6068218;23;20224;-88
2022/12/11 15:39:55;;;;;;;6.37;2.40;;;;;;;18.31;70.64;97086.31;6067820;23;20157;-89
2022/12/11 15:42:35;;;;;;;5.83;2.03;;;;;;;18.20;70.83;97087.56;6067685;23;20172;-88
2022/12/11 15:45:01;;;;;;;5.70;1.80;;;;;;;18.20;70.85;97087.56;6068417;23;20161;-90
2022/12/11 15:47:29;;;;;;;7.37;1.70;;;;;;;17.93;72.23;97095.19;6043962;23;20185;-88
2022/12/11 15:50:01;;;;;;;14.00;2.40;;;;;;;18.05;71.63;97099.94;6044425;23;20240;-88
2022/12/11 15:52:37;;;;;;;12.47;1.90;;;;;;;18.09;71.24;97103.03;6044437;23;20168;-89
2022/12/11 15:55:03;;;;;;;14.50;2.23;;;;;;;18.19;71.24;97101.81;6070190;23;20141;-89
2022/12/11 15:57:29;;;;;;;9.03;2.10;;;;;;;18.14;71.09;97105.97;6069760;23;20180;-91
2022/12/11 15:59:55;;;;;;;11.10;2.20;;;;;;;18.07;71.74;97110.34;6069683;23;20161;-88
2022/12/11 16:02:20;;;;;;;10.17;2.20;;;;;;;18.11;71.32;97117.78;6069483;23;20160;-88
2022/12/11 16:04:46;;;;;;;6.50;1.60;;;;;;;17.94;72.02;97107.47;6069416;23;20580;-88
2022/12/11 16:07:17;;;;;;;11.33;2.57;;;;;;;17.91;72.39;97102.50;6069657;23;20177;-89
2022/12/11 16:09:43;;;;;;;7.20;2.20;;;;;;;17.95;72.03;97095.88;6069398;23;20483;-90
2022/12/11 16:12:21;;;;;;;5.03;1.73;;;;;;;17.97;71.75;97092.03;6069658;23;20156;-91
2022/12/11 16:14:47;;;;;;;9.27;2.17;;;;;;;17.72;72.79;97082.56;6044548;23;20151;-88
2022/12/11 16:17:15;;;;;;;8.53;1.80;;;;;;;17.79;72.98;97073.75;6069302;23;20220;-89
2022/12/11 16:19:42;;;;;;;9.97;1.53;;;;;;;17.79;73.20;97079.06;6069282;23;20160;-89
2022/12/11 16:22:14;;;;;;;8.13;2.07;;;;;;;17.74;73.78;97085.91;6069248;23;20573;-89
2022/12/11 16:24:45;;;;;;;9.77;2.60;;;;;;;17.61;74.61;97096.25;6069621;23;20139;-90
2022/12/11 16:27:11;;;;;;;6.03;1.17;;;;;;;17.63;74.48;97095.06;6044094;23;20184;-89
2022/12/11 16:29:39;;;;;;;7.57;2.50;;;;;;;17.69;74.09;97090.88;6044160;23;20161;-91
2022/12/11 16:32:07;;;;;;;13.43;2.27;;;;;;;17.61;74.38;97089.09;6069197;23;20149;-88
2022/12/11 16:34:33;;;;;;;12.87;2.97;;;;;;;17.75;74.02;97079.59;6067505;23;20157;-87
2022/12/11 16:36:59;;;;;;;6.20;1.67;;;;;;;17.79;73.71;97078.25;6065823;23;20158;-88
2022/12/11 16:39:45;;;;;;;2.50;1.17;;;;;;;17.89;73.26;97081.50;6067826;23;20153;-88
2022/12/11 16:42:14;;;;;;;4.40;1.50;;;;;;;17.99;72.72;97078.59;6028225;23;20591;-88
2022/12/11 16:44:40;;;;;;;8.07;1.87;;;;;;;17.88;72.99;97086.94;6042852;23;20149;-88
2022/12/11 16:47:05;;;;;;;12.67;2.27;;;;;;;17.85;72.87;97084.66;6066838;23;20695;-89
2022/12/11 16:49:47;;;;;;;9.83;2.00;;;;;;;17.88;73.66;97097.56;6043751;23;20164;-89
2022/12/11 16:52:13;;;;;;;9.53;2.03;;;;;;;17.93;73.20;97103.16;6044028;23;20160;-88
2022/12/11 16:54:48;;;;;;;11.27;2.63;;;;;;;17.77;74.02;97104.91;6043997;23;20178;-88
2022/12/11 16:57:14;;;;;;;12.53;1.67;;;;;;;17.71;74.68;97112.75;6068195;23;20141;-88
2022/12/11 16:59:39;;;;;;;7.90;2.40;;;;;;;17.72;74.36;97114.38;6043604;23;20491;-87
2022/12/11 17:02:09;;;;;;;6.53;1.70;;;;;;;17.70;74.20;97105.78;6043534;23;20161;-89
2022/12/11 17:04:36;;;;;;;9.77;2.80;;;;;;;17.83;74.00;97108.69;6043573;23;20161;-87
2022/12/11 17:07:03;;;;;;;8.90;2.40;;;;;;;17.92;73.41;97101.50;6042818;23;20268;-87
2022/12/11 17:09:28;;;;;;;6.23;2.10;;;;;;;18.05;73.14;97104.41;6043486;23;20165;-88
2022/12/11 17:11:54;;;;;;;7.60;2.10;;;;;;;18.08;72.57;97096.09;6068137;23;20159;-88
2022/12/11 17:14:20;;;;;;;7.90;2.60;;;;;;;18.01;72.85;97101.28;6068188;23;20191;-87
2022/12/11 17:16:46;;;;;;;11.07;3.03;;;;;;;17.91;73.30;97091.91;6067834;23;20145;-87
2022/12/11 17:19:12;;;;;;;8.57;1.80;;;;;;;17.87;73.56;97082.66;6067952;23;20153;-88
2022/12/11 17:21:38;;;;;;;9.07;2.33;;;;;;;17.94;73.29;97078.31;6068017;23;20157;-87
2022/12/11 17:24:04;;;;;;;9.57;2.03;;;;;;;18.01;73.21;97077.41;6043008;23;20222;-88
2022/12/11 17:26:30;;;;;;;8.43;1.60;;;;;;;17.86;73.14;97062.47;6068493;23;20149;-88
2022/12/11 17:28:56;;;;;;;7.13;1.97;;;;;;;17.76;73.83;97052.94;6068134;23;20149;-88
2022/12/11 17:31:24;;;;;;;10.10;1.87;;;;;;;17.75;73.91;97043.31;6042836;23;20173;-89
2022/12/11 17:33:50;;;;;;;8.67;1.50;;;;;;;17.64;74.59;97049.00;6067869;23;20161;-88
2022/12/11 17:36:20;;;;;;;6.53;1.80;;;;;;;17.63;74.73;97063.28;6042624;23;20161;-88
2022/12/11 17:38:48;;;;;;;9.70;2.07;;;;;;;17.57;75.00;97063.13;6043174;23;20146;-88
2022/12/11 17:41:14;;;;;;;11.10;1.93;;;;;;;17.56;74.93;97070.25;6067921;23;20570;-88
2022/12/11 17:43:40;;;;;;;4.20;1.53;;;;;;;17.59;74.97;97077.03;6067922;23;20175;-88
2022/12/11 17:46:06;;;;;;;7.10;2.13;;;;;;;17.48;75.52;97095.94;6067743;23;20153;-88
2022/12/11 17:48:32;;;;;;;11.20;2.20;;;;;;;17.47;75.59;97095.13;6067796;23;20625;-88
2022/12/11 17:51:02;;;;;;;6.83;2.10;;;;;;;17.49;75.75;97103.72;6042355;23;20189;-88
2022/12/11 17:53:28;;;;;;;4.20;1.57;;;;;;;17.40;75.94;97110.03;6068102;23;20141;-88
2022/12/11 17:55:53;;;;;;;8.87;2.47;;;;;;;17.38;76.33;97114.66;6067713;23;20473;-88
2022/12/11 17:58:21;;;;;;;6.77;1.90;;;;;;;17.34;76.48;97110.72;6067681;23;20545;-89
2022/12/11 18:00:50;;;;;;;5.00;1.80;;;;;;;17.39;76.59;97108.38;6067595;23;20153;-88